Flight Track Log - Related Links

Times and Time Zones

All times are in EDT time to prevent confusion due to time zone crossing. See the CHQ5095 flight status page for this flight to view local times or setup timezone preferences in your user account.

Time Position Orientation Groundspeed Altitude Reporting Facility
EDT Latitude Longitude Course Direction KTS MPH feet Rate Location/Type
Mon 10:20:01 AM 41.1000 -73.7500 270° West 179 206 2,200  Level New York TRACON
Mon 10:21:01 AM 41.1167 -73.8333 285° West 237 273 3,800 2,050 Climbing New York TRACON
Mon 10:22:01 AM 41.1333 -73.9333 283° West 254 292 6,300 2,468 Climbing New York TRACON
Mon 10:23:05 AM 41.1694 -73.9986 306° West 251 289 8,900 2,066 Climbing New York Center
Mon 10:24:03 AM 41.2156 -74.0697 311° West 251 289 10,500 1,412 Climbing New York Center
Mon 10:25:00 AM 41.1167 -74.4813 270° West  Level FlightAware Approximate
Mon 10:25:04 AM 41.2211 -74.1667 274° West 256 295 11,700  Level New York Center
Mon 10:26:05 AM 41.2011 -74.2786 257° West 291 335 12,600 893 Climbing New York Center
Mon 10:27:05 AM 41.1856 -74.3853 259° West 330 380 13,500 1,220 Climbing New York Center
Mon 10:28:03 AM 41.1644 -74.5247 259° West 347 399 15,000 1,220 Climbing New York Center
Mon 10:29:03 AM 41.1461 -74.6367 258° West 352 405 15,900 893 Climbing New York Center
Mon 10:30:04 AM 41.1708 -74.7758 283° West 347 399 16,800 942 Climbing New York Center
Mon 10:31:04 AM 41.2192 -74.8836 301° West 360 414 17,800 893 Climbing New York Center
Mon 10:32:05 AM 41.2808 -75.0200 301° West 390 449 18,600 756 Climbing New York Center
Mon 10:33:03 AM 41.3267 -75.1333 298° West 390 449 19,300 908 Climbing New York Center
Mon 10:34:04 AM 41.3861 -75.2753 299° West 401 461 20,400 1,033 Climbing New York Center
Mon 10:35:05 AM 41.4436 -75.4039 301° West 401 461 21,400 843 Climbing New York Center
Mon 10:36:05 AM 41.4925 -75.5372 296° West 401 461 22,100 700 Climbing New York Center
Mon 10:37:05 AM 41.5289 -75.6647 291° West 406 467 22,800 756 Climbing New York Center
Mon 10:38:04 AM 41.5725 -75.8175 291° West 406 467 23,600 700 Climbing New York Center
Mon 10:39:05 AM 41.6142 -75.9594 291° West 411 473 24,200 706 Climbing New York Center
Mon 10:40:03 AM 41.6536 -76.1042 290° West 417 480 25,000 915 Climbing New York Center
Mon 10:41:03 AM 41.6931 -76.2461 290° West 417 480 26,000 992 Climbing New York Center
Mon 10:42:04 AM 41.7342 -76.3883 291° West 417 480 27,000 885 Climbing New York Center
Mon 10:43:05 AM 41.7678 -76.5136 290° West 412 474 27,800 893 Climbing New York Center
Mon 10:44:05 AM 41.8089 -76.6564 291° West 412 474 28,800 1,033 Climbing New York Center
Mon 10:45:36 AM 41.8667 -76.8744 290° West 398 458 30,400 1,033 Climbing Cleveland Center
Mon 10:46:36 AM 41.9067 -77.0172 291° West 405 466 31,400 1,000 Climbing Cleveland Center
Mon 10:47:36 AM 41.9422 -77.1578 289° West 405 466 32,400 1,000 Climbing Cleveland Center
Mon 10:48:36 AM 41.9842 -77.3036 291° West 405 466 33,400 1,000 Climbing Cleveland Center
Mon 10:49:36 AM 42.0214 -77.4442 290° West 405 466 34,400 1,000 Climbing Cleveland Center
Mon 10:50:36 AM 42.0586 -77.5906 289° West 405 466 35,400 800 Climbing Cleveland Center
Mon 10:51:36 AM 42.0981 -77.7456 289° West 405 466 36,000 300 Climbing Cleveland Center
Mon 10:52:36 AM 42.1392 -77.8919 291° West 405 466 36,000  Level Cleveland Center
Mon 10:53:36 AM 42.1781 -78.0447 289° West 419 482 36,000  Level Cleveland Center
Mon 10:54:36 AM 42.2189 -78.1972 290° West 424 488 36,000  Level Cleveland Center
Mon 10:55:36 AM 42.2572 -78.3444 289° West 424 488 36,000  Level Cleveland Center
Mon 10:56:36 AM 42.2953 -78.4892 290° West 419 482 36,000  Level Cleveland Center
Mon 10:57:36 AM 42.3311 -78.6311 289° West 413 475 36,000  Level Cleveland Center
Mon 10:58:36 AM 42.3689 -78.7761 289° West 413 475 36,000  Level Cleveland Center
Mon 10:59:36 AM 42.4044 -78.9269 288° West 413 475 36,000  Level Cleveland Center
Mon 11:00:36 AM 42.4400 -79.0722 288° West 413 475 36,000  Level Cleveland Center
Mon 11:01:36 AM 42.4792 -79.2206 290° West 420 483 36,000  Level Cleveland Center
Mon 11:02:36 AM 42.4978 -79.3781 279° West 420 483 36,000  Level Cleveland Center
Mon 11:03:36 AM 42.5033 -79.5383 273° West 425 489 36,000  Level Cleveland Center
Mon 11:04:36 AM 42.5131 -79.7017 275° West 425 489 36,000  Level Cleveland Center
Mon 11:05:36 AM 42.5206 -79.8619 274° West 425 489 36,000  Level Cleveland Center
Mon 11:06:36 AM 42.5233 -80.0028 272° West 425 489 36,000 -700 Level Cleveland Center
Mon 11:07:36 AM 42.5325 -80.1633 274° West 407 468 34,600 -1,000 Descending Cleveland Center
Mon 11:08:36 AM 42.5392 -80.3042 274° West 383 441 34,000 -300 Descending Cleveland Center
Mon 11:09:36 AM 42.5436 -80.4394 273° West 370 426 34,000  Level Cleveland Center
Mon 11:10:36 AM 42.5497 -80.5831 273° West 370 426 34,000  Level Cleveland Center
Mon 11:11:36 AM 42.5561 -80.7269 273° West 375 432 34,000  Level Cleveland Center
Mon 11:12:36 AM 42.5619 -80.8764 273° West 391 450 34,000  Level Cleveland Center
Mon 11:13:36 AM 42.5678 -81.0258 273° West 402 463 34,000  Level Cleveland Center
Mon 11:14:36 AM 42.5817 -81.1781 277° West 402 463 34,000  Level Cleveland Center
Mon 11:15:36 AM 42.5953 -81.3222 277° West 402 463 34,000  Level Cleveland Center
Mon 11:16:36 AM 42.6131 -81.4719 279° West 407 468 34,000  Level Cleveland Center
Mon 11:17:36 AM 42.6264 -81.6244 277° West 407 468 34,000  Level Cleveland Center
Mon 11:18:36 AM 42.6397 -81.7600 278° West 407 468 34,000  Level Cleveland Center
Mon 11:19:36 AM 42.6547 -81.9100 278° West 407 468 34,000  Level Cleveland Center
Mon 11:20:36 AM 42.6694 -82.0656 277° West 412 474 34,000  Level Cleveland Center
Mon 11:21:36 AM 42.6842 -82.2214 277° West 412 474 34,000  Level Cleveland Center
Mon 11:22:36 AM 42.6983 -82.3772 277° West 419 482 34,000  Level Cleveland Center
Mon 11:23:36 AM 42.7125 -82.5358 277° West 419 482 34,000  Level Cleveland Center
Mon 11:24:36 AM 42.7286 -82.6889 278° West 419 482 34,000  Level Cleveland Center
Mon 11:25:36 AM 42.7422 -82.8478 277° West 424 488 34,000  Level Cleveland Center
Mon 11:26:36 AM 42.7558 -83.0008 277° West 424 488 34,000  Level Cleveland Center
Mon 11:27:36 AM 42.7711 -83.1542 278° West 424 488 34,000  Level Cleveland Center
Mon 11:28:36 AM 42.7822 -83.3047 276° West 419 482 34,000  Level Cleveland Center
Mon 11:29:36 AM 42.7969 -83.4750 277° West 414 476 34,000 -150 Level Cleveland Center
Mon 11:30:36 AM 42.8097 -83.6256 277° West 409 471 33,700 -600 Descending Cleveland Center
Mon 11:31:36 AM 42.8222 -83.7847 276° West 409 471 32,800 -850 Descending Cleveland Center
Mon 11:32:36 AM 42.8344 -83.9411 276° West 415 478 32,000 -400 Descending Cleveland Center
Mon 11:33:36 AM 42.8464 -84.0947 276° West 415 478 32,000  Level Cleveland Center
Mon 11:34:36 AM 42.8583 -84.2456 276° West 409 471 32,000  Level Cleveland Center
Mon 11:36:09 AM 42.8764 -84.4669 276° West 405 466 32,000  Level Chicago Center
Mon 11:37:11 AM 42.8822 -84.6219 273° West 409 471 32,000  Level Chicago Center
Mon 11:38:13 AM 42.8644 -84.7786 261° West 417 480 32,000  Level Chicago Center
Mon 11:39:14 AM 42.8478 -84.9372 262° West 423 487 32,000  Level Chicago Center
Mon 11:40:16 AM 42.8272 -85.1269 262° West 422 486 32,000  Level Chicago Center
Mon 11:41:18 AM 42.8094 -85.2883 262° West 429 494 32,000 -435 Level Chicago Center
Mon 11:42:20 AM 42.7925 -85.4494 262° West 429 494 31,100 -1,452 Descending Chicago Center
Mon 11:43:22 AM 42.7678 -85.6083 258° West 429 494 29,000 -2,098 Descending Chicago Center
Mon 11:44:23 AM 42.7383 -85.7661 256° West 427 491 26,800 -2,195 Descending Chicago Center
Mon 11:45:25 AM 42.7103 -85.9228 256° West 424 488 24,500 -2,177 Descending Chicago Center
Mon 11:46:27 AM 42.6828 -86.0750 256° West 414 476 22,300 -2,032 Descending Chicago Center
Mon 11:47:29 AM 42.6553 -86.2225 256° West 404 465 20,300 -1,113 Descending Chicago Center
Mon 11:48:31 AM 42.6286 -86.3636 256° West 388 447 20,000 -629 Descending Chicago Center
Mon 11:49:33 AM 42.5967 -86.5294 255° West 378 435 19,000 -1,403 Descending Chicago Center
Mon 11:50:35 AM 42.5697 -86.6736 256° West 391 450 17,100 -1,790 Descending Chicago Center
Mon 11:51:37 AM 42.5400 -86.8083 253° West 377 434 15,300 -1,694 Descending Chicago Center
Mon 11:52:39 AM 42.5056 -86.9356 250° West 364 419 13,600 -1,790 Descending Chicago Center
Mon 11:53:41 AM 42.4711 -87.0583 249° West 351 404 11,600 -1,597 Descending Chicago Center
Mon 11:54:43 AM 42.4422 -87.1639 250° West 308 354 10,300 -1,452 Descending Chicago Center
Mon 11:55:45 AM 42.3864 -87.2447 227° Southwest 270 311 8,600 -1,548 Descending Chicago Center
Mon 11:56:47 AM 42.3172 -87.2661 193° South 259 298 7,100 -1,694 Descending Chicago Center
Mon 11:57:49 AM 42.2464 -87.2864 192° South 252 290 5,100 -1,258 Descending Chicago Center
Mon 11:58:51 AM 42.1814 -87.3017 190° South 240 276 4,500 -532 Descending Chicago Center
Mon 11:59:53 AM 42.1183 -87.3186 191° South 232 267 4,000 -242 Descending Chicago Center
Mon 12:00:55 PM 42.0592 -87.3489 201° Southwest 228 262 4,000  Level Chicago Center
Mon 12:01:57 PM 42.0183 -87.4058 226° Southwest 235 270 4,000  Level Chicago Center
Mon 12:02:59 PM 42.0019 -87.5011 257° West 222 255 4,000  Level Chicago Center
Mon 12:04:01 PM 42.0036 -87.5750 272° West 208 239 4,000  Level Chicago Center
Mon 12:05:03 PM 42.0028 -87.6319 269° West 180 207 4,000  Level Chicago Center

Login

Don't have an account? Register now (free) for customized features, flight alerts, and more!